sensor_id;sensor_type;location;lat;lon;timestamp;pressure;altitude;pressure_sealevel;temperature;humidity
68230;BME280;55048;52.220;5.160;2023-04-26T00:02:22;101842.31;;;6.86;70.96
68230;BME280;55048;52.220;5.160;2023-04-26T00:04:51;101857.34;;;6.85;71.04
68230;BME280;55048;52.220;5.160;2023-04-26T00:07:21;101806.63;;;6.60;70.85
68230;BME280;55048;52.220;5.160;2023-04-26T00:09:49;101888.94;;;6.94;71.25
68230;BME280;55048;52.220;5.160;2023-04-26T00:12:15;101809.38;;;6.52;71.00
68230;BME280;55048;52.220;5.160;2023-04-26T00:14:40;101806.31;;;6.49;71.52
68230;BME280;55048;52.220;5.160;2023-04-26T00:17:06;101775.72;;;6.10;71.31
68230;BME280;55048;52.220;5.160;2023-04-26T00:19:31;101893.66;;;6.77;71.40
68230;BME280;55048;52.220;5.160;2023-04-26T00:21:57;101740.59;;;5.65;71.31
68230;BME280;55048;52.220;5.160;2023-04-26T00:24:22;101811.78;;;6.32;71.35
68230;BME280;55048;52.220;5.160;2023-04-26T00:26:48;101883.53;;;6.65;71.72
68230;BME280;55048;52.220;5.160;2023-04-26T00:29:13;101883.94;;;6.62;71.81
68230;BME280;55048;52.220;5.160;2023-04-26T00:31:38;101876.53;;;6.58;71.70
68230;BME280;55048;52.220;5.160;2023-04-26T00:34:04;101877.53;;;6.42;71.58
68230;BME280;55048;52.220;5.160;2023-04-26T00:36:29;101863.22;;;6.51;72.03
68230;BME280;55048;52.220;5.160;2023-04-26T00:38:57;101770.34;;;5.74;71.91
68230;BME280;55048;52.220;5.160;2023-04-26T00:41:22;101794.25;;;5.72;71.69
68230;BME280;55048;52.220;5.160;2023-04-26T00:43:48;101746.50;;;5.67;71.96
68230;BME280;55048;52.220;5.160;2023-04-26T00:46:14;101640.81;;;4.86;71.67
68230;BME280;55048;52.220;5.160;2023-04-26T00:48:39;101723.53;;;5.38;71.98
68230;BME280;55048;52.220;5.160;2023-04-26T00:51:05;101863.34;;;6.28;72.18
68230;BME280;55048;52.220;5.160;2023-04-26T00:53:31;101684.56;;;5.10;71.77
68230;BME280;55048;52.220;5.160;2023-04-26T00:55:58;101856.34;;;6.21;72.41
68230;BME280;55048;52.220;5.160;2023-04-26T00:58:24;101841.47;;;6.05;72.36
68230;BME280;55048;52.220;5.160;2023-04-26T01:00:50;101694.94;;;5.12;72.32
68230;BME280;55048;52.220;5.160;2023-04-26T01:03:16;101872.47;;;6.11;72.20
68230;BME280;55048;52.220;5.160;2023-04-26T01:05:42;101273.34;;;2.35;72.35
68230;BME280;55048;52.220;5.160;2023-04-26T01:08:09;101770.69;;;5.41;72.83
68230;BME280;55048;52.220;5.160;2023-04-26T01:10:34;101750.94;;;5.37;72.75
68230;BME280;55048;52.220;5.160;2023-04-26T01:13:00;101755.91;;;5.32;72.91
68230;BME280;55048;52.220;5.160;2023-04-26T01:15:28;101897.84;;;5.97;73.11
68230;BME280;55048;52.220;5.160;2023-04-26T01:17:55;101756.47;;;5.27;72.93
68230;BME280;55048;52.220;5.160;2023-04-26T01:20:22;101594.31;;;4.33;73.04
68230;BME280;55048;52.220;5.160;2023-04-26T01:22:47;101354.56;;;2.75;72.88
68230;BME280;55048;52.220;5.160;2023-04-26T01:25:15;101859.38;;;5.80;73.07
68230;BME280;55048;52.220;5.160;2023-04-26T01:27:40;101818.00;;;5.57;72.82
68230;BME280;55048;52.220;5.160;2023-04-26T01:30:06;101860.09;;;5.74;73.15
68230;BME280;55048;52.220;5.160;2023-04-26T01:32:32;101660.09;;;4.41;73.31
68230;BME280;55048;52.220;5.160;2023-04-26T01:34:59;101672.41;;;4.49;73.27
68230;BME280;55048;52.220;5.160;2023-04-26T01:37:24;101675.56;;;4.21;73.37
68230;BME280;55048;52.220;5.160;2023-04-26T01:39:50;101563.91;;;3.84;73.20
68230;BME280;55048;52.220;5.160;2023-04-26T01:42:18;101514.66;;;3.39;73.29
68230;BME280;55048;52.220;5.160;2023-04-26T01:44:43;101860.69;;;5.61;73.31
68230;BME280;55048;52.220;5.160;2023-04-26T01:47:09;101805.69;;;5.12;73.26
68230;BME280;55048;52.220;5.160;2023-04-26T01:49:35;101773.00;;;4.98;73.26
68230;BME280;55048;52.220;5.160;2023-04-26T01:52:00;101802.50;;;5.17;73.31
68230;BME280;55048;52.220;5.160;2023-04-26T01:54:26;101469.66;;;3.03;73.13
68230;BME280;55048;52.220;5.160;2023-04-26T01:56:51;101673.47;;;4.40;73.32
68230;BME280;55048;52.220;5.160;2023-04-26T01:59:17;101889.69;;;5.46;73.97
68230;BME280;55048;52.220;5.160;2023-04-26T02:01:42;101695.56;;;4.30;73.66
68230;BME280;55048;52.220;5.160;2023-04-26T02:04:09;101743.88;;;4.69;73.91
68230;BME280;55048;52.220;5.160;2023-04-26T02:06:35;101878.53;;;5.36;73.71
68230;BME280;55048;52.220;5.160;2023-04-26T02:09:04;101571.22;;;3.35;73.69
68230;BME280;55048;52.220;5.160;2023-04-26T02:11:30;101501.44;;;2.85;73.24
68230;BME280;55048;52.220;5.160;2023-04-26T02:13:56;101666.13;;;3.96;73.52
68230;BME280;55048;52.220;5.160;2023-04-26T02:16:21;101875.81;;;5.21;73.83
68230;BME280;55048;52.220;5.160;2023-04-26T02:18:47;101863.41;;;5.30;73.61
68230;BME280;55048;52.220;5.160;2023-04-26T02:21:16;101861.09;;;5.27;73.68
68230;BME280;55048;52.220;5.160;2023-04-26T02:23:42;101785.56;;;4.65;73.87
68230;BME280;55048;52.220;5.160;2023-04-26T02:26:08;101892.13;;;5.25;73.51
68230;BME280;55048;52.220;5.160;2023-04-26T02:28:34;101859.84;;;5.23;73.52
68230;BME280;55048;52.220;5.160;2023-04-26T02:31:01;101612.94;;;3.46;73.72
68230;BME280;55048;52.220;5.160;2023-04-26T02:33:28;101688.22;;;3.87;73.75
68230;BME280;55048;52.220;5.160;2023-04-26T02:35:55;101432.66;;;2.34;73.91
68230;BME280;55048;52.220;5.160;2023-04-26T02:38:20;101891.91;;;5.03;74.17
68230;BME280;55048;52.220;5.160;2023-04-26T02:40:46;101602.66;;;3.20;74.03
68230;BME280;55048;52.220;5.160;2023-04-26T02:43:12;101677.34;;;3.90;74.11
68230;BME280;55048;52.220;5.160;2023-04-26T02:45:41;101873.84;;;5.00;74.72
68230;BME280;55048;52.220;5.160;2023-04-26T02:48:11;101745.00;;;4.20;74.78
68230;BME280;55048;52.220;5.160;2023-04-26T02:50:37;101713.66;;;4.02;74.64
68230;BME280;55048;52.220;5.160;2023-04-26T02:53:03;101579.88;;;2.96;74.68
68230;BME280;55048;52.220;5.160;2023-04-26T02:55:29;101375.81;;;1.94;74.39
68230;BME280;55048;52.220;5.160;2023-04-26T02:57:55;101883.28;;;4.86;74.79
68230;BME280;55048;52.220;5.160;2023-04-26T03:00:21;101831.13;;;4.74;74.78
68230;BME280;55048;52.220;5.160;2023-04-26T03:02:47;101867.81;;;4.83;74.80
68230;BME280;55048;52.220;5.160;2023-04-26T03:05:13;101816.41;;;4.56;74.68
68230;BME280;55048;52.220;5.160;2023-04-26T03:07:39;101856.19;;;4.70;74.94
68230;BME280;55048;52.220;5.160;2023-04-26T03:10:05;101830.22;;;4.67;74.40
68230;BME280;55048;52.220;5.160;2023-04-26T03:12:32;101850.63;;;4.65;74.66
68230;BME280;55048;52.220;5.160;2023-04-26T03:14:59;101776.66;;;4.04;74.79
68230;BME280;55048;52.220;5.160;2023-04-26T03:17:27;101884.50;;;4.76;74.87
68230;BME280;55048;52.220;5.160;2023-04-26T03:19:54;101539.25;;;2.68;74.63
68230;BME280;55048;52.220;5.160;2023-04-26T03:22:19;101627.13;;;3.29;75.27
68230;BME280;55048;52.220;5.160;2023-04-26T03:24:45;101854.97;;;4.57;74.74
68230;BME280;55048;52.220;5.160;2023-04-26T03:27:12;101849.63;;;4.66;75.07
68230;BME280;55048;52.220;5.160;2023-04-26T03:29:38;101854.06;;;4.65;75.18
68230;BME280;55048;52.220;5.160;2023-04-26T03:32:04;101686.94;;;3.27;74.87
68230;BME280;55048;52.220;5.160;2023-04-26T03:34:30;101751.91;;;3.74;75.06
68230;BME280;55048;52.220;5.160;2023-04-26T03:36:56;101751.06;;;3.81;75.08
68230;BME280;55048;52.220;5.160;2023-04-26T03:39:21;101503.34;;;2.36;74.56
68230;BME280;55048;52.220;5.160;2023-04-26T03:41:47;101758.88;;;4.06;75.04
68230;BME280;55048;52.220;5.160;2023-04-26T03:44:13;101850.31;;;4.59;75.38
68230;BME280;55048;52.220;5.160;2023-04-26T03:46:38;101591.59;;;2.86;75.35
68230;BME280;55048;52.220;5.160;2023-04-26T03:49:04;101855.00;;;4.41;75.57
68230;BME280;55048;52.220;5.160;2023-04-26T03:51:31;101759.63;;;3.83;75.03
68230;BME280;55048;52.220;5.160;2023-04-26T03:53:57;101611.75;;;2.93;75.54
68230;BME280;55048;52.220;5.160;2023-04-26T03:56:23;101673.91;;;3.42;75.69
68230;BME280;55048;52.220;5.160;2023-04-26T03:58:48;101850.34;;;4.51;75.74
68230;BME280;55048;52.220;5.160;2023-04-26T04:01:14;101867.34;;;4.49;75.60
68230;BME280;55048;52.220;5.160;2023-04-26T04:03:40;101846.28;;;4.41;75.74
68230;BME280;55048;52.220;5.160;2023-04-26T04:06:05;101441.88;;;1.89;75.70
68230;BME280;55048;52.220;5.160;2023-04-26T04:08:31;101838.19;;;4.42;75.82
68230;BME280;55048;52.220;5.160;2023-04-26T04:10:56;101857.66;;;4.33;75.95
68230;BME280;55048;52.220;5.160;2023-04-26T04:13:22;101646.56;;;2.95;76.19
68230;BME280;55048;52.220;5.160;2023-04-26T04:15:48;101641.16;;;2.89;76.26
68230;BME280;55048;52.220;5.160;2023-04-26T04:18:13;101724.69;;;3.42;76.43
68230;BME280;55048;52.220;5.160;2023-04-26T04:20:40;101727.47;;;3.49;76.36
68230;BME280;55048;52.220;5.160;2023-04-26T04:23:05;101609.34;;;2.75;76.39
68230;BME280;55048;52.220;5.160;2023-04-26T04:25:33;101599.97;;;2.73;75.94
68230;BME280;55048;52.220;5.160;2023-04-26T04:28:02;101748.50;;;3.57;76.15
68230;BME280;55048;52.220;5.160;2023-04-26T04:30:28;101660.50;;;3.12;75.93
68230;BME280;55048;52.220;5.160;2023-04-26T04:32:55;101657.75;;;2.81;76.01
68230;BME280;55048;52.220;5.160;2023-04-26T04:35:23;101563.06;;;2.58;76.27
68230;BME280;55048;52.220;5.160;2023-04-26T04:37:54;101833.06;;;4.09;76.24
68230;BME280;55048;52.220;5.160;2023-04-26T04:40:24;101782.94;;;3.87;76.03
68230;BME280;55048;52.220;5.160;2023-04-26T04:42:50;101833.25;;;4.00;75.93
68230;BME280;55048;52.220;5.160;2023-04-26T04:45:18;101757.81;;;3.76;76.30
68230;BME280;55048;52.220;5.160;2023-04-26T04:47:44;101870.81;;;4.41;76.30
68230;BME280;55048;52.220;5.160;2023-04-26T04:50:10;101788.00;;;4.04;76.45
68230;BME280;55048;52.220;5.160;2023-04-26T04:52:36;101852.03;;;4.44;76.49
68230;BME280;55048;52.220;5.160;2023-04-26T04:55:02;101843.69;;;4.32;76.20
68230;BME280;55048;52.220;5.160;2023-04-26T04:57:28;101847.78;;;4.35;76.65
68230;BME280;55048;52.220;5.160;2023-04-26T04:59:54;101828.25;;;4.29;76.50
68230;BME280;55048;52.220;5.160;2023-04-26T05:02:20;101813.78;;;4.17;76.65
68230;BME280;55048;52.220;5.160;2023-04-26T05:04:45;101872.09;;;4.53;77.01
68230;BME280;55048;52.220;5.160;2023-04-26T05:07:11;101851.22;;;4.44;77.09
68230;BME280;55048;52.220;5.160;2023-04-26T05:09:41;101839.66;;;4.53;76.76
68230;BME280;55048;52.220;5.160;2023-04-26T05:12:06;101819.78;;;4.42;76.65
68230;BME280;55048;52.220;5.160;2023-04-26T05:14:32;101776.94;;;4.17;76.98
68230;BME280;55048;52.220;5.160;2023-04-26T05:16:57;101842.50;;;4.74;76.77
68230;BME280;55048;52.220;5.160;2023-04-26T05:19:24;101852.00;;;4.83;76.65
68230;BME280;55048;52.220;5.160;2023-04-26T05:21:51;101539.13;;;3.09;76.43
68230;BME280;55048;52.220;5.160;2023-04-26T05:24:16;101612.25;;;3.44;76.43
68230;BME280;55048;52.220;5.160;2023-04-26T05:26:42;101759.94;;;4.59;76.97
68230;BME280;55048;52.220;5.160;2023-04-26T05:29:10;101797.47;;;5.07;76.86
68230;BME280;55048;52.220;5.160;2023-04-26T05:31:50;101769.13;;;5.09;76.41
68230;BME280;55048;52.220;5.160;2023-04-26T05:34:32;101745.63;;;5.22;76.05
68230;BME280;55048;52.220;5.160;2023-04-26T05:36:58;101810.91;;;5.73;75.84
68230;BME280;55048;52.220;5.160;2023-04-26T05:39:24;101813.69;;;5.79;76.11
68230;BME280;55048;52.220;5.160;2023-04-26T05:41:50;101730.25;;;5.41;75.87
68230;BME280;55048;52.220;5.160;2023-04-26T05:44:15;101824.28;;;5.94;75.94
68230;BME280;55048;52.220;5.160;2023-04-26T05:46:41;101854.13;;;6.24;76.02
68230;BME280;55048;52.220;5.160;2023-04-26T05:49:08;101832.94;;;6.18;76.23
68230;BME280;55048;52.220;5.160;2023-04-26T05:51:33;101798.69;;;6.09;76.24
68230;BME280;55048;52.220;5.160;2023-04-26T05:53:59;101844.78;;;6.73;76.89
68230;BME280;55048;52.220;5.160;2023-04-26T05:56:25;101896.03;;;7.72;76.25
68230;BME280;55048;52.220;5.160;2023-04-26T05:58:51;101885.28;;;8.36;75.14
68230;BME280;55048;52.220;5.160;2023-04-26T06:01:17;101874.63;;;8.64;73.84
68230;BME280;55048;52.220;5.160;2023-04-26T06:03:44;101826.72;;;8.79;73.06
68230;BME280;55048;52.220;5.160;2023-04-26T06:06:09;101818.63;;;9.07;71.95
68230;BME280;55048;52.220;5.160;2023-04-26T06:08:37;101814.75;;;9.23;70.81
68230;BME280;55048;52.220;5.160;2023-04-26T06:11:03;101874.22;;;9.62;70.73
68230;BME280;55048;52.220;5.160;2023-04-26T06:13:28;101863.97;;;9.32;69.84
68230;BME280;55048;52.220;5.160;2023-04-26T06:15:54;101787.72;;;8.60;69.87
68230;BME280;55048;52.220;5.160;2023-04-26T06:18:20;101875.72;;;8.83;70.17
68230;BME280;55048;52.220;5.160;2023-04-26T06:20:46;101872.44;;;8.81;70.19
68230;BME280;55048;52.220;5.160;2023-04-26T06:23:11;101883.41;;;8.72;70.42
68230;BME280;55048;52.220;5.160;2023-04-26T06:25:37;101754.31;;;7.83;70.44
68230;BME280;55048;52.220;5.160;2023-04-26T06:28:06;101849.09;;;8.22;70.22
68230;BME280;55048;52.220;5.160;2023-04-26T06:30:32;101897.81;;;8.49;70.36
68230;BME280;55048;52.220;5.160;2023-04-26T06:32:58;101792.97;;;7.71;70.83
68230;BME280;55048;52.220;5.160;2023-04-26T06:35:24;101866.59;;;8.16;71.03
68230;BME280;55048;52.220;5.160;2023-04-26T06:37:50;101891.94;;;8.26;71.19
68230;BME280;55048;52.220;5.160;2023-04-26T06:40:15;101813.75;;;7.74;71.13
68230;BME280;55048;52.220;5.160;2023-04-26T06:42:42;101862.25;;;8.02;71.38
68230;BME280;55048;52.220;5.160;2023-04-26T06:45:26;101846.50;;;7.94;71.35
68230;BME280;55048;52.220;5.160;2023-04-26T06:47:53;101833.78;;;7.83;71.29
68230;BME280;55048;52.220;5.160;2023-04-26T06:50:22;101803.34;;;7.72;71.45
68230;BME280;55048;52.220;5.160;2023-04-26T06:52:47;101899.69;;;8.27;71.19
68230;BME280;55048;52.220;5.160;2023-04-26T06:55:13;101829.78;;;7.93;71.27
68230;BME280;55048;52.220;5.160;2023-04-26T06:57:38;101857.22;;;8.14;71.22
68230;BME280;55048;52.220;5.160;2023-04-26T07:00:04;101838.63;;;8.07;71.10
68230;BME280;55048;52.220;5.160;2023-04-26T07:02:30;101869.94;;;8.32;70.80
68230;BME280;55048;52.220;5.160;2023-04-26T07:04:55;101902.53;;;8.60;70.62
68230;BME280;55048;52.220;5.160;2023-04-26T07:07:21;101793.09;;;7.90;70.12
68230;BME280;55048;52.220;5.160;2023-04-26T07:09:47;101856.50;;;8.33;69.71
68230;BME280;55048;52.220;5.160;2023-04-26T07:12:12;101888.47;;;8.60;69.16
68230;BME280;55048;52.220;5.160;2023-04-26T07:14:38;101767.91;;;7.73;68.19
68230;BME280;55048;52.220;5.160;2023-04-26T07:17:10;101812.28;;;7.99;66.01
68230;BME280;55048;52.220;5.160;2023-04-26T07:19:35;101874.13;;;8.48;67.54
68230;BME280;55048;52.220;5.160;2023-04-26T07:22:01;101810.56;;;8.19;67.36
68230;BME280;55048;52.220;5.160;2023-04-26T07:24:26;101775.44;;;8.11;66.92
68230;BME280;55048;52.220;5.160;2023-04-26T07:26:52;101892.69;;;8.96;66.75
68230;BME280;55048;52.220;5.160;2023-04-26T07:29:18;101819.03;;;8.43;66.49
68230;BME280;55048;52.220;5.160;2023-04-26T07:31:44;101842.34;;;8.54;66.33
68230;BME280;55048;52.220;5.160;2023-04-26T07:34:09;101882.25;;;8.87;65.95
68230;BME280;55048;52.220;5.160;2023-04-26T07:36:34;101836.03;;;8.55;65.47
68230;BME280;55048;52.220;5.160;2023-04-26T07:39:00;101858.06;;;8.62;65.32
68230;BME280;55048;52.220;5.160;2023-04-26T07:41:25;101883.59;;;8.70;65.30
68230;BME280;55048;52.220;5.160;2023-04-26T07:43:51;101857.13;;;8.35;65.14
68230;BME280;55048;52.220;5.160;2023-04-26T07:46:16;101810.00;;;7.89;65.92
68230;BME280;55048;52.220;5.160;2023-04-26T07:48:42;101854.22;;;7.89;66.46
68230;BME280;55048;52.220;5.160;2023-04-26T07:51:09;101919.38;;;8.11;67.29
68230;BME280;55048;52.220;5.160;2023-04-26T07:53:36;101876.72;;;7.78;67.46
68230;BME280;55048;52.220;5.160;2023-04-26T07:56:03;101928.94;;;8.12;67.51
68230;BME280;55048;52.220;5.160;2023-04-26T07:58:30;101912.13;;;7.99;67.61
68230;BME280;55048;52.220;5.160;2023-04-26T08:00:58;101933.81;;;8.09;67.92
68230;BME280;55048;52.220;5.160;2023-04-26T08:03:23;101931.34;;;8.07;68.03
68230;BME280;55048;52.220;5.160;2023-04-26T08:05:49;101926.63;;;7.75;68.24
68230;BME280;55048;52.220;5.160;2023-04-26T08:08:14;101930.34;;;8.08;67.64
68230;BME280;55048;52.220;5.160;2023-04-26T08:10:40;101935.50;;;8.16;66.45
68230;BME280;55048;52.220;5.160;2023-04-26T08:13:06;101938.75;;;8.18;66.29
68230;BME280;55048;52.220;5.160;2023-04-26T08:15:31;101853.28;;;7.75;65.87
68230;BME280;55048;52.220;5.160;2023-04-26T08:17:57;101766.78;;;7.26;65.88
68230;BME280;55048;52.220;5.160;2023-04-26T08:20:22;101882.69;;;7.87;65.46
68230;BME280;55048;52.220;5.160;2023-04-26T08:22:48;101881.75;;;7.95;64.53
68230;BME280;55048;52.220;5.160;2023-04-26T08:25:13;101932.28;;;8.21;64.76
68230;BME280;55048;52.220;5.160;2023-04-26T08:27:39;101908.00;;;8.24;64.76
68230;BME280;55048;52.220;5.160;2023-04-26T08:30:05;101927.34;;;8.18;63.96
68230;BME280;55048;52.220;5.160;2023-04-26T08:32:31;101878.75;;;8.04;63.93
68230;BME280;55048;52.220;5.160;2023-04-26T08:34:58;101862.19;;;7.96;63.49
68230;BME280;55048;52.220;5.160;2023-04-26T08:37:24;101800.91;;;7.71;63.12
68230;BME280;55048;52.220;5.160;2023-04-26T08:39:49;101927.66;;;8.64;63.08
68230;BME280;55048;52.220;5.160;2023-04-26T08:42:16;101665.72;;;6.81;62.04
68230;BME280;55048;52.220;5.160;2023-04-26T08:44:43;101797.56;;;7.90;61.16
68230;BME280;55048;52.220;5.160;2023-04-26T08:47:28;101917.53;;;8.81;61.02
68230;BME280;55048;52.220;5.160;2023-04-26T08:49:57;101829.25;;;8.39;60.28
68230;BME280;55048;52.220;5.160;2023-04-26T08:52:29;101925.56;;;9.08;59.43
68230;BME280;55048;52.220;5.160;2023-04-26T08:54:56;101930.75;;;9.36;59.01
68230;BME280;55048;52.220;5.160;2023-04-26T08:57:26;101819.78;;;8.78;57.85
68230;BME280;55048;52.220;5.160;2023-04-26T08:59:52;101727.16;;;8.63;57.52
68230;BME280;55048;52.220;5.160;2023-04-26T09:02:22;101897.47;;;10.06;56.35
68230;BME280;55048;52.220;5.160;2023-04-26T09:04:48;101910.00;;;10.70;55.36
68230;BME280;55048;52.220;5.160;2023-04-26T09:07:26;101913.38;;;10.97;53.85
68230;BME280;55048;52.220;5.160;2023-04-26T09:09:56;101822.16;;;10.39;53.87
68230;BME280;55048;52.220;5.160;2023-04-26T09:12:22;101916.97;;;10.71;52.18
68230;BME280;55048;52.220;5.160;2023-04-26T09:14:48;101827.97;;;9.96;52.91
68230;BME280;55048;52.220;5.160;2023-04-26T09:17:31;101871.34;;;9.70;53.07
68230;BME280;55048;52.220;5.160;2023-04-26T09:19:58;101822.50;;;9.64;53.80
68230;BME280;55048;52.220;5.160;2023-04-26T09:22:34;101861.91;;;9.87;53.63
68230;BME280;55048;52.220;5.160;2023-04-26T09:25:02;101911.78;;;10.25;54.37
68230;BME280;55048;52.220;5.160;2023-04-26T09:27:37;101915.25;;;10.26;54.67
68230;BME280;55048;52.220;5.160;2023-04-26T09:35:30;101925.47;;;10.09;55.09
68230;BME280;55048;52.220;5.160;2023-04-26T09:40:24;101809.25;;;9.31;55.87
68230;BME280;55048;52.220;5.160;2023-04-26T09:43:04;101843.97;;;9.50;55.86
68230;BME280;55048;52.220;5.160;2023-04-26T09:45:30;101927.53;;;10.00;56.85
68230;BME280;55048;52.220;5.160;2023-04-26T09:48:16;101932.25;;;9.98;56.98
68230;BME280;55048;52.220;5.160;2023-04-26T09:50:43;101888.09;;;9.77;56.43
68230;BME280;55048;52.220;5.160;2023-04-26T09:53:10;101874.41;;;9.54;54.31
68230;BME280;55048;52.220;5.160;2023-04-26T09:55:36;101791.47;;;9.12;54.87
68230;BME280;55048;52.220;5.160;2023-04-26T09:58:09;101841.72;;;9.66;53.12
68230;BME280;55048;52.220;5.160;2023-04-26T10:00:37;101935.69;;;10.25;52.95
68230;BME280;55048;52.220;5.160;2023-04-26T10:03:05;101903.78;;;10.18;53.24
68230;BME280;55048;52.220;5.160;2023-04-26T10:05:31;101916.06;;;10.33;52.68
68230;BME280;55048;52.220;5.160;2023-04-26T10:07:57;101824.13;;;9.72;52.78
68230;BME280;55048;52.220;5.160;2023-04-26T10:10:22;101920.50;;;10.59;52.92
68230;BME280;55048;52.220;5.160;2023-04-26T10:12:48;101906.16;;;10.53;52.59
68230;BME280;55048;52.220;5.160;2023-04-26T10:15:13;101809.81;;;9.86;52.88
68230;BME280;55048;52.220;5.160;2023-04-26T10:17:39;101914.97;;;10.54;52.59
68230;BME280;55048;52.220;5.160;2023-04-26T10:20:09;101926.63;;;10.53;51.92
68230;BME280;55048;52.220;5.160;2023-04-26T10:22:36;101925.38;;;10.62;51.21
68230;BME280;55048;52.220;5.160;2023-04-26T10:25:07;101922.69;;;10.75;51.98
68230;BME280;55048;52.220;5.160;2023-04-26T10:30:19;101925.66;;;10.98;50.62
68230;BME280;55048;52.220;5.160;2023-04-26T10:35:17;101865.19;;;10.74;51.08
68230;BME280;55048;52.220;5.160;2023-04-26T10:42:49;101852.38;;;10.96;49.68
68230;BME280;55048;52.220;5.160;2023-04-26T10:45:27;101902.19;;;11.20;49.31
68230;BME280;55048;52.220;5.160;2023-04-26T10:51:07;101909.97;;;11.54;49.15
68230;BME280;55048;52.220;5.160;2023-04-26T10:59:25;101919.72;;;11.91;46.51
68230;BME280;55048;52.220;5.160;2023-04-26T11:01:51;101877.16;;;11.78;46.96
68230;BME280;55048;52.220;5.160;2023-04-26T11:04:16;101850.69;;;11.58;46.92
68230;BME280;55048;52.220;5.160;2023-04-26T11:06:48;101907.84;;;11.62;45.76
68230;BME280;55048;52.220;5.160;2023-04-26T11:12:14;101802.81;;;11.95;46.10
68230;BME280;55048;52.220;5.160;2023-04-26T11:14:40;101882.97;;;12.55;46.46
68230;BME280;55048;52.220;5.160;2023-04-26T11:17:06;101904.91;;;12.57;46.22
68230;BME280;55048;52.220;5.160;2023-04-26T11:19:33;101848.59;;;12.10;47.26
68230;BME280;55048;52.220;5.160;2023-04-26T11:21:59;101884.91;;;11.86;46.61
68230;BME280;55048;52.220;5.160;2023-04-26T11:24:34;101865.97;;;11.44;48.23
68230;BME280;55048;52.220;5.160;2023-04-26T11:27:07;101786.34;;;10.80;49.10
68230;BME280;55048;52.220;5.160;2023-04-26T11:29:33;101868.31;;;11.34;49.33
68230;BME280;55048;52.220;5.160;2023-04-26T11:31:58;101899.88;;;11.56;49.14
68230;BME280;55048;52.220;5.160;2023-04-26T11:34:34;101779.16;;;10.80;49.17
68230;BME280;55048;52.220;5.160;2023-04-26T11:37:01;101867.53;;;11.27;49.60
68230;BME280;55048;52.220;5.160;2023-04-26T11:39:27;101796.00;;;11.06;49.80
68230;BME280;55048;52.220;5.160;2023-04-26T11:42:11;101890.69;;;11.52;50.54
68230;BME280;55048;52.220;5.160;2023-04-26T11:44:39;101678.69;;;10.12;50.28
68230;BME280;55048;52.220;5.160;2023-04-26T11:47:05;101813.53;;;11.13;50.68
68230;BME280;55048;52.220;5.160;2023-04-26T11:49:32;101813.53;;;11.13;50.69
68230;BME280;55048;52.220;5.160;2023-04-26T11:51:58;101727.47;;;10.94;49.95
68230;BME280;55048;52.220;5.160;2023-04-26T11:54:34;101883.44;;;11.90;49.89
68230;BME280;55048;52.220;5.160;2023-04-26T11:57:12;101760.81;;;11.29;49.65
68230;BME280;55048;52.220;5.160;2023-04-26T11:59:37;101765.28;;;11.53;49.37
68230;BME280;55048;52.220;5.160;2023-04-26T12:02:06;101845.03;;;12.16;48.72
68230;BME280;55048;52.220;5.160;2023-04-26T12:04:32;101884.44;;;12.33;48.12
68230;BME280;55048;52.220;5.160;2023-04-26T12:06:58;101832.03;;;11.83;48.14
68230;BME280;55048;52.220;5.160;2023-04-26T12:09:28;101884.69;;;11.88;48.06
68230;BME280;55048;52.220;5.160;2023-04-26T12:11:59;101784.38;;;11.25;48.04
68230;BME280;55048;52.220;5.160;2023-04-26T12:14:43;101876.41;;;11.96;48.62
68230;BME280;55048;52.220;5.160;2023-04-26T12:17:14;101894.13;;;11.90;48.76
68230;BME280;55048;52.220;5.160;2023-04-26T12:19:39;101851.19;;;11.48;49.01
68230;BME280;55048;52.220;5.160;2023-04-26T12:22:06;101876.22;;;11.16;50.04
68230;BME280;55048;52.220;5.160;2023-04-26T12:24:32;101889.56;;;11.41;50.18
68230;BME280;55048;52.220;5.160;2023-04-26T12:26:59;101759.00;;;10.66;50.25
68230;BME280;55048;52.220;5.160;2023-04-26T12:29:25;101859.34;;;11.29;50.47
68230;BME280;55048;52.220;5.160;2023-04-26T12:31:50;101850.81;;;11.13;50.89
68230;BME280;55048;52.220;5.160;2023-04-26T12:34:16;101809.47;;;10.79;51.89
68230;BME280;55048;52.220;5.160;2023-04-26T12:36:41;101894.69;;;11.42;51.49
68230;BME280;55048;52.220;5.160;2023-04-26T12:39:10;101830.97;;;11.09;51.14
68230;BME280;55048;52.220;5.160;2023-04-26T12:41:38;101794.91;;;10.82;51.19
68230;BME280;55048;52.220;5.160;2023-04-26T12:44:03;101907.78;;;11.44;50.92
68230;BME280;55048;52.220;5.160;2023-04-26T12:46:29;101883.97;;;11.49;51.00
68230;BME280;55048;52.220;5.160;2023-04-26T12:48:55;101902.25;;;11.70;50.47
68230;BME280;55048;52.220;5.160;2023-04-26T12:51:20;101870.94;;;11.66;50.00
68230;BME280;55048;52.220;5.160;2023-04-26T12:53:46;101837.97;;;11.60;49.76
68230;BME280;55048;52.220;5.160;2023-04-26T12:56:11;101831.75;;;11.41;48.48
68230;BME280;55048;52.220;5.160;2023-04-26T12:58:37;101893.59;;;12.00;47.73
68230;BME280;55048;52.220;5.160;2023-04-26T13:01:03;101873.44;;;11.86;46.11
68230;BME280;55048;52.220;5.160;2023-04-26T13:03:28;101849.00;;;11.64;46.30
68230;BME280;55048;52.220;5.160;2023-04-26T13:05:53;101895.31;;;11.94;46.61
68230;BME280;55048;52.220;5.160;2023-04-26T13:08:19;101802.09;;;11.38;46.81
68230;BME280;55048;52.220;5.160;2023-04-26T13:10:45;101805.34;;;11.40;46.26
68230;BME280;55048;52.220;5.160;2023-04-26T13:13:10;101799.97;;;11.46;46.37
68230;BME280;55048;52.220;5.160;2023-04-26T13:15:36;101906.66;;;12.08;46.62
68230;BME280;55048;52.220;5.160;2023-04-26T13:18:01;101882.16;;;12.18;46.79
68230;BME280;55048;52.220;5.160;2023-04-26T13:20:27;101917.19;;;12.40;46.28
68230;BME280;55048;52.220;5.160;2023-04-26T13:22:52;101596.84;;;10.53;46.41
68230;BME280;55048;52.220;5.160;2023-04-26T13:25:17;101637.25;;;10.86;45.72
68230;BME280;55048;52.220;5.160;2023-04-26T13:27:44;101707.34;;;11.48;45.82